sensor_id;sensor_type;location;lat;lon;timestamp;temperature;humidity
7129;DHT22;3606;52.930;8.644;2022-07-03T00:00:42;17.30;62.00
7129;DHT22;3606;52.930;8.644;2022-07-03T00:03:07;17.20;63.40
7129;DHT22;3606;52.930;8.644;2022-07-03T00:05:34;17.20;1.00
7129;DHT22;3606;52.930;8.644;2022-07-03T00:07:59;17.20;99.90
7129;DHT22;3606;52.930;8.644;2022-07-03T00:10:25;17.20;99.90
7129;DHT22;3606;52.930;8.644;2022-07-03T00:12:50;17.20;99.90
7129;DHT22;3606;52.930;8.644;2022-07-03T00:15:16;17.30;1.00
7129;DHT22;3606;52.930;8.644;2022-07-03T00:17:41;17.40;1.00
7129;DHT22;3606;52.930;8.644;2022-07-03T00:20:08;17.30;1.00
7129;DHT22;3606;52.930;8.644;2022-07-03T00:22:37;17.30;77.90
7129;DHT22;3606;52.930;8.644;2022-07-03T00:25:05;17.30;1.00
7129;DHT22;3606;52.930;8.644;2022-07-03T00:27:32;17.20;81.20
7129;DHT22;3606;52.930;8.644;2022-07-03T00:30:00;17.20;99.90
7129;DHT22;3606;52.930;8.644;2022-07-03T00:32:27;17.10;99.90
7129;DHT22;3606;52.930;8.644;2022-07-03T00:34:55;16.90;1.00
7129;DHT22;3606;52.930;8.644;2022-07-03T00:37:23;16.80;99.90
7129;DHT22;3606;52.930;8.644;2022-07-03T00:39:49;16.70;99.90
7129;DHT22;3606;52.930;8.644;2022-07-03T00:42:16;16.50;1.00
7129;DHT22;3606;52.930;8.644;2022-07-03T00:44:52;16.40;99.90
7129;DHT22;3606;52.930;8.644;2022-07-03T00:47:21;16.20;99.90
7129;DHT22;3606;52.930;8.644;2022-07-03T00:49:49;16.10;99.90
7129;DHT22;3606;52.930;8.644;2022-07-03T00:52:17;15.90;99.90
7129;DHT22;3606;52.930;8.644;2022-07-03T00:54:45;15.80;99.90
7129;DHT22;3606;52.930;8.644;2022-07-03T00:57:16;15.70;1.00
7129;DHT22;3606;52.930;8.644;2022-07-03T00:59:43;15.70;1.00
7129;DHT22;3606;52.930;8.644;2022-07-03T01:02:15;15.60;1.00
7129;DHT22;3606;52.930;8.644;2022-07-03T01:07:37;15.50;1.00
7129;DHT22;3606;52.930;8.644;2022-07-03T01:10:04;15.30;99.90
7129;DHT22;3606;52.930;8.644;2022-07-03T01:12:54;15.10;99.90
7129;DHT22;3606;52.930;8.644;2022-07-03T01:15:46;14.90;99.90
7129;DHT22;3606;52.930;8.644;2022-07-03T01:18:29;14.90;1.00
7129;DHT22;3606;52.930;8.644;2022-07-03T01:21:15;14.80;1.00
7129;DHT22;3606;52.930;8.644;2022-07-03T01:26:10;14.60;1.00
7129;DHT22;3606;52.930;8.644;2022-07-03T01:28:39;14.60;99.90
7129;DHT22;3606;52.930;8.644;2022-07-03T01:31:10;14.50;99.90
7129;DHT22;3606;52.930;8.644;2022-07-03T01:33:37;14.30;99.90
7129;DHT22;3606;52.930;8.644;2022-07-03T01:36:13;14.30;99.90
7129;DHT22;3606;52.930;8.644;2022-07-03T01:38:40;14.30;1.00
7129;DHT22;3606;52.930;8.644;2022-07-03T01:41:11;14.20;1.00
7129;DHT22;3606;52.930;8.644;2022-07-03T01:43:57;14.20;1.00
7129;DHT22;3606;52.930;8.644;2022-07-03T01:46:29;14.20;1.00
7129;DHT22;3606;52.930;8.644;2022-07-03T01:48:57;14.10;1.00
7129;DHT22;3606;52.930;8.644;2022-07-03T01:51:23;14.10;19.70
7129;DHT22;3606;52.930;8.644;2022-07-03T01:53:50;14.00;20.30
7129;DHT22;3606;52.930;8.644;2022-07-03T01:56:18;13.90;35.10
7129;DHT22;3606;52.930;8.644;2022-07-03T01:58:43;13.80;27.20
7129;DHT22;3606;52.930;8.644;2022-07-03T02:01:33;13.80;74.90
7129;DHT22;3606;52.930;8.644;2022-07-03T02:04:24;13.80;99.90
7129;DHT22;3606;52.930;8.644;2022-07-03T02:09:44;13.70;99.90
7129;DHT22;3606;52.930;8.644;2022-07-03T02:12:12;13.80;99.90
7129;DHT22;3606;52.930;8.644;2022-07-03T02:14:40;13.70;99.90
7129;DHT22;3606;52.930;8.644;2022-07-03T02:17:21;13.80;99.90
7129;DHT22;3606;52.930;8.644;2022-07-03T02:19:58;13.60;99.90
7129;DHT22;3606;52.930;8.644;2022-07-03T02:22:31;13.60;99.90
7129;DHT22;3606;52.930;8.644;2022-07-03T02:25:36;13.60;99.90
7129;DHT22;3606;52.930;8.644;2022-07-03T02:28:04;13.60;99.90
7129;DHT22;3606;52.930;8.644;2022-07-03T02:30:30;13.50;99.90
7129;DHT22;3606;52.930;8.644;2022-07-03T02:32:59;13.50;99.90
7129;DHT22;3606;52.930;8.644;2022-07-03T02:35:31;13.40;99.90
7129;DHT22;3606;52.930;8.644;2022-07-03T02:38:17;13.40;99.90
7129;DHT22;3606;52.930;8.644;2022-07-03T02:55:39;13.70;99.90
7129;DHT22;3606;52.930;8.644;2022-07-03T03:01:02;14.00;99.90
7129;DHT22;3606;52.930;8.644;2022-07-03T03:03:31;14.10;99.90
7129;DHT22;3606;52.930;8.644;2022-07-03T03:06:14;14.20;99.90
7129;DHT22;3606;52.930;8.644;2022-07-03T03:11:43;14.20;99.90
7129;DHT22;3606;52.930;8.644;2022-07-03T03:14:10;14.10;99.90
7129;DHT22;3606;52.930;8.644;2022-07-03T03:16:45;14.00;99.90
7129;DHT22;3606;52.930;8.644;2022-07-03T03:19:11;13.90;99.90
7129;DHT22;3606;52.930;8.644;2022-07-03T03:24:36;13.80;99.90
7129;DHT22;3606;52.930;8.644;2022-07-03T03:27:02;13.70;99.90
7129;DHT22;3606;52.930;8.644;2022-07-03T03:29:28;13.90;99.90
7129;DHT22;3606;52.930;8.644;2022-07-03T03:31:53;13.90;99.90
7129;DHT22;3606;52.930;8.644;2022-07-03T03:34:20;13.90;99.90
7129;DHT22;3606;52.930;8.644;2022-07-03T03:36:47;14.00;99.90
7129;DHT22;3606;52.930;8.644;2022-07-03T03:39:13;13.90;99.90
7129;DHT22;3606;52.930;8.644;2022-07-03T03:41:39;13.70;99.90
7129;DHT22;3606;52.930;8.644;2022-07-03T03:44:05;13.70;99.90
7129;DHT22;3606;52.930;8.644;2022-07-03T03:46:30;13.70;99.90
7129;DHT22;3606;52.930;8.644;2022-07-03T03:48:57;13.70;99.90
7129;DHT22;3606;52.930;8.644;2022-07-03T03:51:22;13.70;99.90
7129;DHT22;3606;52.930;8.644;2022-07-03T03:53:48;13.70;99.90
7129;DHT22;3606;52.930;8.644;2022-07-03T03:56:14;13.70;99.90
7129;DHT22;3606;52.930;8.644;2022-07-03T03:58:43;13.70;99.90
7129;DHT22;3606;52.930;8.644;2022-07-03T04:01:10;13.70;99.90
7129;DHT22;3606;52.930;8.644;2022-07-03T04:03:37;13.90;99.90
7129;DHT22;3606;52.930;8.644;2022-07-03T04:06:03;14.00;99.90
7129;DHT22;3606;52.930;8.644;2022-07-03T04:08:30;14.10;99.90
7129;DHT22;3606;52.930;8.644;2022-07-03T04:10:56;14.20;99.90
7129;DHT22;3606;52.930;8.644;2022-07-03T04:13:21;14.30;99.90
7129;DHT22;3606;52.930;8.644;2022-07-03T04:15:48;14.40;99.90
7129;DHT22;3606;52.930;8.644;2022-07-03T04:18:14;14.60;99.90
7129;DHT22;3606;52.930;8.644;2022-07-03T04:20:40;14.80;99.90
7129;DHT22;3606;52.930;8.644;2022-07-03T04:23:06;15.00;99.90
7129;DHT22;3606;52.930;8.644;2022-07-03T04:25:32;15.20;99.90
7129;DHT22;3606;52.930;8.644;2022-07-03T04:27:58;15.30;99.90
7129;DHT22;3606;52.930;8.644;2022-07-03T04:30:24;15.40;99.90
7129;DHT22;3606;52.930;8.644;2022-07-03T04:32:50;15.40;99.90
7129;DHT22;3606;52.930;8.644;2022-07-03T04:35:15;15.50;99.90
7129;DHT22;3606;52.930;8.644;2022-07-03T04:37:42;15.40;99.90
7129;DHT22;3606;52.930;8.644;2022-07-03T04:40:08;15.30;99.90
7129;DHT22;3606;52.930;8.644;2022-07-03T04:42:34;15.20;99.90
7129;DHT22;3606;52.930;8.644;2022-07-03T04:45:00;15.10;99.90
7129;DHT22;3606;52.930;8.644;2022-07-03T04:47:26;15.00;99.90
7129;DHT22;3606;52.930;8.644;2022-07-03T04:49:51;15.00;99.90
7129;DHT22;3606;52.930;8.644;2022-07-03T04:52:17;15.00;99.90
7129;DHT22;3606;52.930;8.644;2022-07-03T04:54:43;15.00;99.90
7129;DHT22;3606;52.930;8.644;2022-07-03T04:57:08;15.00;99.90
7129;DHT22;3606;52.930;8.644;2022-07-03T04:59:34;15.00;99.90
7129;DHT22;3606;52.930;8.644;2022-07-03T05:02:00;15.00;99.90
7129;DHT22;3606;52.930;8.644;2022-07-03T05:04:25;15.20;99.90
7129;DHT22;3606;52.930;8.644;2022-07-03T05:06:51;15.40;99.90
7129;DHT22;3606;52.930;8.644;2022-07-03T05:09:16;15.70;99.90
7129;DHT22;3606;52.930;8.644;2022-07-03T05:11:44;16.00;99.90
7129;DHT22;3606;52.930;8.644;2022-07-03T05:14:09;16.50;99.90
7129;DHT22;3606;52.930;8.644;2022-07-03T05:16:35;17.20;99.90
7129;DHT22;3606;52.930;8.644;2022-07-03T05:19:01;17.80;1.00
7129;DHT22;3606;52.930;8.644;2022-07-03T05:21:26;18.20;99.90
7129;DHT22;3606;52.930;8.644;2022-07-03T05:23:52;18.40;29.90
7129;DHT22;3606;52.930;8.644;2022-07-03T05:26:18;18.80;1.00
7129;DHT22;3606;52.930;8.644;2022-07-03T05:28:43;19.30;1.00
7129;DHT22;3606;52.930;8.644;2022-07-03T05:31:09;19.70;99.90
7129;DHT22;3606;52.930;8.644;2022-07-03T05:33:35;20.10;1.00
7129;DHT22;3606;52.930;8.644;2022-07-03T05:36:00;20.70;99.90
7129;DHT22;3606;52.930;8.644;2022-07-03T05:38:26;21.10;99.90
7129;DHT22;3606;52.930;8.644;2022-07-03T05:41:11;21.50;56.00
7129;DHT22;3606;52.930;8.644;2022-07-03T05:43:37;21.90;1.00
7129;DHT22;3606;52.930;8.644;2022-07-03T05:46:02;22.30;1.00
7129;DHT22;3606;52.930;8.644;2022-07-03T05:48:28;22.60;1.00
7129;DHT22;3606;52.930;8.644;2022-07-03T05:50:54;22.90;99.90
7129;DHT22;3606;52.930;8.644;2022-07-03T05:53:20;23.30;99.90
7129;DHT22;3606;52.930;8.644;2022-07-03T05:55:46;23.70;1.00
7129;DHT22;3606;52.930;8.644;2022-07-03T05:58:11;23.80;1.00
7129;DHT22;3606;52.930;8.644;2022-07-03T06:00:37;24.20;99.90
7129;DHT22;3606;52.930;8.644;2022-07-03T06:03:03;24.40;99.90
7129;DHT22;3606;52.930;8.644;2022-07-03T06:05:28;24.50;1.00
7129;DHT22;3606;52.930;8.644;2022-07-03T06:07:54;24.60;99.90
7129;DHT22;3606;52.930;8.644;2022-07-03T06:10:20;24.60;99.90
7129;DHT22;3606;52.930;8.644;2022-07-03T06:12:45;24.80;99.90
7129;DHT22;3606;52.930;8.644;2022-07-03T06:15:11;25.00;99.90
7129;DHT22;3606;52.930;8.644;2022-07-03T06:17:37;25.40;99.90
7129;DHT22;3606;52.930;8.644;2022-07-03T06:20:04;25.60;99.90
7129;DHT22;3606;52.930;8.644;2022-07-03T06:22:30;25.70;28.00
7129;DHT22;3606;52.930;8.644;2022-07-03T06:24:56;25.70;29.30
7129;DHT22;3606;52.930;8.644;2022-07-03T06:27:21;25.50;1.70
7129;DHT22;3606;52.930;8.644;2022-07-03T06:29:48;25.50;41.00
7129;DHT22;3606;52.930;8.644;2022-07-03T06:32:15;25.50;44.00
7129;DHT22;3606;52.930;8.644;2022-07-03T06:34:41;25.80;1.00
7129;DHT22;3606;52.930;8.644;2022-07-03T06:37:08;25.80;1.00
7129;DHT22;3606;52.930;8.644;2022-07-03T06:39:34;25.80;1.00
7129;DHT22;3606;52.930;8.644;2022-07-03T06:41:59;26.20;1.00
7129;DHT22;3606;52.930;8.644;2022-07-03T06:44:25;26.20;1.00
7129;DHT22;3606;52.930;8.644;2022-07-03T06:46:51;26.20;1.00
7129;DHT22;3606;52.930;8.644;2022-07-03T06:49:16;26.50;1.00
7129;DHT22;3606;52.930;8.644;2022-07-03T06:51:42;26.70;1.00
7129;DHT22;3606;52.930;8.644;2022-07-03T06:54:07;26.90;1.00
7129;DHT22;3606;52.930;8.644;2022-07-03T06:56:34;27.20;1.00
7129;DHT22;3606;52.930;8.644;2022-07-03T06:58:59;27.70;1.00
7129;DHT22;3606;52.930;8.644;2022-07-03T07:01:25;28.00;1.00
7129;DHT22;3606;52.930;8.644;2022-07-03T07:03:51;27.70;1.00
7129;DHT22;3606;52.930;8.644;2022-07-03T07:06:17;27.80;1.00
7129;DHT22;3606;52.930;8.644;2022-07-03T07:08:42;28.20;1.00
7129;DHT22;3606;52.930;8.644;2022-07-03T07:11:08;28.40;1.00
7129;DHT22;3606;52.930;8.644;2022-07-03T07:13:33;28.30;1.00
7129;DHT22;3606;52.930;8.644;2022-07-03T07:15:59;28.10;1.00
7129;DHT22;3606;52.930;8.644;2022-07-03T07:18:26;28.30;1.00
7129;DHT22;3606;52.930;8.644;2022-07-03T07:20:51;28.30;1.00
7129;DHT22;3606;52.930;8.644;2022-07-03T07:23:17;28.60;1.00
7129;DHT22;3606;52.930;8.644;2022-07-03T07:25:43;28.70;1.00
7129;DHT22;3606;52.930;8.644;2022-07-03T07:28:08;28.40;1.00
7129;DHT22;3606;52.930;8.644;2022-07-03T07:30:34;28.30;1.00
7129;DHT22;3606;52.930;8.644;2022-07-03T07:32:59;28.40;1.00
7129;DHT22;3606;52.930;8.644;2022-07-03T07:35:25;28.50;1.00
7129;DHT22;3606;52.930;8.644;2022-07-03T07:37:50;28.80;1.00
7129;DHT22;3606;52.930;8.644;2022-07-03T07:40:16;28.80;99.90
7129;DHT22;3606;52.930;8.644;2022-07-03T07:42:42;29.00;99.90
7129;DHT22;3606;52.930;8.644;2022-07-03T07:45:10;29.40;99.90
7129;DHT22;3606;52.930;8.644;2022-07-03T07:47:35;29.90;99.90
7129;DHT22;3606;52.930;8.644;2022-07-03T07:50:01;30.50;99.90
7129;DHT22;3606;52.930;8.644;2022-07-03T07:52:26;30.80;99.90
7129;DHT22;3606;52.930;8.644;2022-07-03T07:54:52;30.90;99.90
7129;DHT22;3606;52.930;8.644;2022-07-03T07:57:18;30.40;99.90
7129;DHT22;3606;52.930;8.644;2022-07-03T07:59:43;30.40;99.90
7129;DHT22;3606;52.930;8.644;2022-07-03T08:02:09;30.50;99.90
7129;DHT22;3606;52.930;8.644;2022-07-03T08:04:53;30.40;99.90
7129;DHT22;3606;52.930;8.644;2022-07-03T08:07:37;30.30;99.90
7129;DHT22;3606;52.930;8.644;2022-07-03T08:10:03;30.20;99.90
7129;DHT22;3606;52.930;8.644;2022-07-03T08:12:29;30.30;99.90
7129;DHT22;3606;52.930;8.644;2022-07-03T08:14:55;30.30;99.90
7129;DHT22;3606;52.930;8.644;2022-07-03T08:17:21;30.60;99.90
7129;DHT22;3606;52.930;8.644;2022-07-03T08:19:46;31.20;99.90
7129;DHT22;3606;52.930;8.644;2022-07-03T08:22:12;31.40;99.90
7129;DHT22;3606;52.930;8.644;2022-07-03T08:24:37;31.20;99.90
7129;DHT22;3606;52.930;8.644;2022-07-03T08:27:04;31.20;99.90
7129;DHT22;3606;52.930;8.644;2022-07-03T08:29:30;31.10;99.90
7129;DHT22;3606;52.930;8.644;2022-07-03T08:31:56;30.80;99.90
7129;DHT22;3606;52.930;8.644;2022-07-03T08:34:22;30.90;99.90
7129;DHT22;3606;52.930;8.644;2022-07-03T08:36:48;31.20;99.90
7129;DHT22;3606;52.930;8.644;2022-07-03T08:39:13;31.60;99.90
7129;DHT22;3606;52.930;8.644;2022-07-03T08:41:40;32.20;99.90
7129;DHT22;3606;52.930;8.644;2022-07-03T08:44:08;32.70;99.90
7129;DHT22;3606;52.930;8.644;2022-07-03T08:46:34;32.60;99.90
7129;DHT22;3606;52.930;8.644;2022-07-03T08:49:02;32.10;99.90
7129;DHT22;3606;52.930;8.644;2022-07-03T08:51:27;31.60;99.90
7129;DHT22;3606;52.930;8.644;2022-07-03T08:53:54;31.40;99.90
7129;DHT22;3606;52.930;8.644;2022-07-03T08:56:21;31.60;99.90
7129;DHT22;3606;52.930;8.644;2022-07-03T08:58:47;32.10;99.90
7129;DHT22;3606;52.930;8.644;2022-07-03T09:01:16;32.60;99.90
7129;DHT22;3606;52.930;8.644;2022-07-03T09:03:43;33.20;99.90
7129;DHT22;3606;52.930;8.644;2022-07-03T09:06:09;33.50;99.90
7129;DHT22;3606;52.930;8.644;2022-07-03T09:08:36;33.30;99.90
7129;DHT22;3606;52.930;8.644;2022-07-03T09:11:04;32.90;99.90
7129;DHT22;3606;52.930;8.644;2022-07-03T09:13:29;33.00;99.90
7129;DHT22;3606;52.930;8.644;2022-07-03T09:15:55;32.80;99.90
7129;DHT22;3606;52.930;8.644;2022-07-03T09:18:56;32.80;99.90
7129;DHT22;3606;52.930;8.644;2022-07-03T09:21:22;33.10;99.90
7129;DHT22;3606;52.930;8.644;2022-07-03T09:23:51;33.70;99.90
7129;DHT22;3606;52.930;8.644;2022-07-03T09:26:18;34.50;99.90
7129;DHT22;3606;52.930;8.644;2022-07-03T09:28:51;34.90;99.90
7129;DHT22;3606;52.930;8.644;2022-07-03T09:31:21;35.10;99.90
7129;DHT22;3606;52.930;8.644;2022-07-03T09:34:14;35.00;99.90
7129;DHT22;3606;52.930;8.644;2022-07-03T09:36:49;35.10;99.90
7129;DHT22;3606;52.930;8.644;2022-07-03T09:42:10;35.10;99.90
7129;DHT22;3606;52.930;8.644;2022-07-03T09:44:43;35.20;99.90
7129;DHT22;3606;52.930;8.644;2022-07-03T09:47:22;35.50;99.90
7129;DHT22;3606;52.930;8.644;2022-07-03T09:52:26;34.80;99.90
7129;DHT22;3606;52.930;8.644;2022-07-03T09:54:55;34.90;99.90
7129;DHT22;3606;52.930;8.644;2022-07-03T09:57:21;35.20;99.90
7129;DHT22;3606;52.930;8.644;2022-07-03T09:59:48;35.60;99.90
7129;DHT22;3606;52.930;8.644;2022-07-03T10:02:13;35.20;99.90
7129;DHT22;3606;52.930;8.644;2022-07-03T10:04:39;34.50;99.90
7129;DHT22;3606;52.930;8.644;2022-07-03T10:07:05;34.80;99.90
7129;DHT22;3606;52.930;8.644;2022-07-03T10:09:34;35.00;99.90
7129;DHT22;3606;52.930;8.644;2022-07-03T10:12:01;35.20;99.90
7129;DHT22;3606;52.930;8.644;2022-07-03T10:14:30;35.60;99.90
7129;DHT22;3606;52.930;8.644;2022-07-03T10:16:55;36.00;99.90
7129;DHT22;3606;52.930;8.644;2022-07-03T10:19:26;36.50;99.90
7129;DHT22;3606;52.930;8.644;2022-07-03T10:21:56;36.90;99.90
7129;DHT22;3606;52.930;8.644;2022-07-03T10:24:24;36.80;99.90
7129;DHT22;3606;52.930;8.644;2022-07-03T10:26:51;37.00;99.90
7129;DHT22;3606;52.930;8.644;2022-07-03T10:29:17;37.20;99.90
7129;DHT22;3606;52.930;8.644;2022-07-03T10:31:46;36.10;99.90
7129;DHT22;3606;52.930;8.644;2022-07-03T10:34:16;34.80;99.90
7129;DHT22;3606;52.930;8.644;2022-07-03T10:36:43;35.20;99.90
7129;DHT22;3606;52.930;8.644;2022-07-03T10:39:17;35.80;99.90
7129;DHT22;3606;52.930;8.644;2022-07-03T10:41:47;35.80;99.90
7129;DHT22;3606;52.930;8.644;2022-07-03T10:44:31;34.90;99.90
7129;DHT22;3606;52.930;8.644;2022-07-03T10:50:17;34.60;99.90
7129;DHT22;3606;52.930;8.644;2022-07-03T10:52:44;35.00;99.90
7129;DHT22;3606;52.930;8.644;2022-07-03T10:55:12;34.90;99.90
7129;DHT22;3606;52.930;8.644;2022-07-03T10:57:39;34.70;99.90
7129;DHT22;3606;52.930;8.644;2022-07-03T11:00:16;33.70;99.90
7129;DHT22;3606;52.930;8.644;2022-07-03T11:02:47;33.90;99.90
7129;DHT22;3606;52.930;8.644;2022-07-03T11:05:14;33.80;99.90
7129;DHT22;3606;52.930;8.644;2022-07-03T11:15:46;34.10;99.90
7129;DHT22;3606;52.930;8.644;2022-07-03T11:18:19;35.10;99.90
7129;DHT22;3606;52.930;8.644;2022-07-03T11:25:44;36.90;99.90
7129;DHT22;3606;52.930;8.644;2022-07-03T11:33:50;32.60;99.90
7129;DHT22;3606;52.930;8.644;2022-07-03T11:44:05;34.20;99.90
7129;DHT22;3606;52.930;8.644;2022-07-03T11:46:33;34.50;99.90
7129;DHT22;3606;52.930;8.644;2022-07-03T11:49:11;34.40;99.90
7129;DHT22;3606;52.930;8.644;2022-07-03T11:51:38;34.70;99.90
7129;DHT22;3606;52.930;8.644;2022-07-03T11:54:05;34.80;99.90
7129;DHT22;3606;52.930;8.644;2022-07-03T11:56:31;34.40;99.90
7129;DHT22;3606;52.930;8.644;2022-07-03T11:58:59;34.50;99.90
7129;DHT22;3606;52.930;8.644;2022-07-03T12:03:51;35.30;99.90
7129;DHT22;3606;52.930;8.644;2022-07-03T12:06:18;35.00;99.90
7129;DHT22;3606;52.930;8.644;2022-07-03T12:08:44;34.70;99.90
7129;DHT22;3606;52.930;8.644;2022-07-03T12:11:15;34.30;99.90
7129;DHT22;3606;52.930;8.644;2022-07-03T12:13:40;34.10;99.90
7129;DHT22;3606;52.930;8.644;2022-07-03T12:16:13;34.20;99.90
7129;DHT22;3606;52.930;8.644;2022-07-03T12:18:44;33.80;99.90
7129;DHT22;3606;52.930;8.644;2022-07-03T12:21:10;33.00;99.90
7129;DHT22;3606;52.930;8.644;2022-07-03T12:23:51;32.50;99.90
7129;DHT22;3606;52.930;8.644;2022-07-03T12:26:31;32.00;99.90
7129;DHT22;3606;52.930;8.644;2022-07-03T12:28:58;31.30;99.90
7129;DHT22;3606;52.930;8.644;2022-07-03T12:31:25;30.90;99.90
7129;DHT22;3606;52.930;8.644;2022-07-03T12:33:51;31.00;99.90
7129;DHT22;3606;52.930;8.644;2022-07-03T12:36:17;30.90;99.90
7129;DHT22;3606;52.930;8.644;2022-07-03T12:38:56;31.20;99.90
7129;DHT22;3606;52.930;8.644;2022-07-03T12:41:23;32.00;99.90
7129;DHT22;3606;52.930;8.644;2022-07-03T12:43:50;33.00;99.90
7129;DHT22;3606;52.930;8.644;2022-07-03T12:48:56;32.60;99.90
7129;DHT22;3606;52.930;8.644;2022-07-03T12:51:48;31.50;99.90
7129;DHT22;3606;52.930;8.644;2022-07-03T12:54:28;30.80;99.90
7129;DHT22;3606;52.930;8.644;2022-07-03T12:57:12;31.00;99.90
7129;DHT22;3606;52.930;8.644;2022-07-03T13:00:13;32.30;99.90
7129;DHT22;3606;52.930;8.644;2022-07-03T13:02:49;34.30;99.90
7129;DHT22;3606;52.930;8.644;2022-07-03T13:05:23;33.90;99.90
7129;DHT22;3606;52.930;8.644;2022-07-03T13:07:53;32.90;99.90
7129;DHT22;3606;52.930;8.644;2022-07-03T13:10:21;32.70;99.90
7129;DHT22;3606;52.930;8.644;2022-07-03T13:12:51;32.40;99.90
7129;DHT22;3606;52.930;8.644;2022-07-03T13:15:18;32.10;99.90
7129;DHT22;3606;52.930;8.644;2022-07-03T13:17:59;31.20;99.90
7129;DHT22;3606;52.930;8.644;2022-07-03T13:20:34;30.30;99.90
7129;DHT22;3606;52.930;8.644;2022-07-03T13:23:01;29.80;99.90
7129;DHT22;3606;52.930;8.644;2022-07-03T13:25:28;29.80;99.90
7129;DHT22;3606;52.930;8.644;2022-07-03T13:28:07;29.80;99.90
7129;DHT22;3606;52.930;8.644;2022-07-03T13:30:34;31.30;99.90
7129;DHT22;3606;52.930;8.644;2022-07-03T13:33:01;31.70;99.90
7129;DHT22;3606;52.930;8.644;2022-07-03T13:35:27;32.10;99.90
7129;DHT22;3606;52.930;8.644;2022-07-03T13:37:53;31.70;99.90
7129;DHT22;3606;52.930;8.644;2022-07-03T13:40:18;30.90;99.90
7129;DHT22;3606;52.930;8.644;2022-07-03T13:42:44;30.20;99.90
7129;DHT22;3606;52.930;8.644;2022-07-03T13:45:10;29.50;99.90
7129;DHT22;3606;52.930;8.644;2022-07-03T13:47:36;28.80;99.90
7129;DHT22;3606;52.930;8.644;2022-07-03T13:50:02;28.20;99.90
7129;DHT22;3606;52.930;8.644;2022-07-03T13:52:28;27.60;99.90
7129;DHT22;3606;52.930;8.644;2022-07-03T13:54:53;27.20;99.90
7129;DHT22;3606;52.930;8.644;2022-07-03T13:57:19;26.80;99.90
7129;DHT22;3606;52.930;8.644;2022-07-03T13:59:44;26.50;99.90
7129;DHT22;3606;52.930;8.644;2022-07-03T14:02:10;26.30;99.90
7129;DHT22;3606;52.930;8.644;2022-07-03T14:04:36;26.10;99.90
7129;DHT22;3606;52.930;8.644;2022-07-03T14:07:01;25.80;99.90
7129;DHT22;3606;52.930;8.644;2022-07-03T14:09:27;25.60;99.90
7129;DHT22;3606;52.930;8.644;2022-07-03T14:11:53;25.50;1.00
7129;DHT22;3606;52.930;8.644;2022-07-03T14:14:18;25.00;1.00
7129;DHT22;3606;52.930;8.644;2022-07-03T14:16:44;24.20;1.00
7129;DHT22;3606;52.930;8.644;2022-07-03T14:19:09;23.50;99.90
7129;DHT22;3606;52.930;8.644;2022-07-03T14:21:35;23.20;99.90
7129;DHT22;3606;52.930;8.644;2022-07-03T14:24:00;24.50;1.00
7129;DHT22;3606;52.930;8.644;2022-07-03T14:26:26;26.80;96.90
7129;DHT22;3606;52.930;8.644;2022-07-03T14:29:10;27.90;1.00
7129;DHT22;3606;52.930;8.644;2022-07-03T14:31:55;26.90;1.00
7129;DHT22;3606;52.930;8.644;2022-07-03T14:34:40;26.10;1.00
7129;DHT22;3606;52.930;8.644;2022-07-03T14:37:06;25.70;1.00
7129;DHT22;3606;52.930;8.644;2022-07-03T14:39:32;25.40;97.40
7129;DHT22;3606;52.930;8.644;2022-07-03T14:41:57;26.40;1.00
7129;DHT22;3606;52.930;8.644;2022-07-03T14:44:23;28.20;1.00
7129;DHT22;3606;52.930;8.644;2022-07-03T14:46:51;28.50;1.00
7129;DHT22;3606;52.930;8.644;2022-07-03T14:49:17;29.50;1.00
7129;DHT22;3606;52.930;8.644;2022-07-03T14:51:43;30.40;1.00
7129;DHT22;3606;52.930;8.644;2022-07-03T14:54:09;31.20;99.90
7129;DHT22;3606;52.930;8.644;2022-07-03T14:56:39;31.30;99.90
7129;DHT22;3606;52.930;8.644;2022-07-03T14:59:08;30.10;99.90
7129;DHT22;3606;52.930;8.644;2022-07-03T15:01:40;29.00;1.00
7129;DHT22;3606;52.930;8.644;2022-07-03T15:04:19;29.00;1.00
7129;DHT22;3606;52.930;8.644;2022-07-03T15:06:46;28.80;1.00
7129;DHT22;3606;52.930;8.644;2022-07-03T15:09:19;28.80;1.00
7129;DHT22;3606;52.930;8.644;2022-07-03T15:11:53;29.40;1.00
7129;DHT22;3606;52.930;8.644;2022-07-03T15:14:40;29.20;1.00
7129;DHT22;3606;52.930;8.644;2022-07-03T15:17:07;28.60;1.00
7129;DHT22;3606;52.930;8.644;2022-07-03T15:19:35;29.20;1.00
7129;DHT22;3606;52.930;8.644;2022-07-03T15:22:03;29.70;1.00
7129;DHT22;3606;52.930;8.644;2022-07-03T15:24:30;29.30;1.00
7129;DHT22;3606;52.930;8.644;2022-07-03T15:26:56;29.00;1.00
7129;DHT22;3606;52.930;8.644;2022-07-03T15:29:22;28.40;1.00
7129;DHT22;3606;52.930;8.644;2022-07-03T15:31:48;27.80;1.00
7129;DHT22;3606;52.930;8.644;2022-07-03T15:34:14;27.20;1.00
7129;DHT22;3606;52.930;8.644;2022-07-03T15:36:45;26.70;1.00
7129;DHT22;3606;52.930;8.644;2022-07-03T15:39:18;26.30;1.00
7129;DHT22;3606;52.930;8.644;2022-07-03T15:42:17;26.20;1.00
7129;DHT22;3606;52.930;8.644;2022-07-03T15:45:17;26.30;60.60
7129;DHT22;3606;52.930;8.644;2022-07-03T15:50:40;26.50;1.00
7129;DHT22;3606;52.930;8.644;2022-07-03T15:53:11;26.70;1.00
7129;DHT22;3606;52.930;8.644;2022-07-03T15:55:42;26.60;1.00
7129;DHT22;3606;52.930;8.644;2022-07-03T15:58:11;26.40;1.00
7129;DHT22;3606;52.930;8.644;2022-07-03T16:00:38;26.00;1.00
7129;DHT22;3606;52.930;8.644;2022-07-03T16:03:27;25.90;1.00
7129;DHT22;3606;52.930;8.644;2022-07-03T16:05:57;25.90;9.50
7129;DHT22;3606;52.930;8.644;2022-07-03T16:08:28;25.70;90.80
7129;DHT22;3606;52.930;8.644;2022-07-03T16:10:54;25.60;99.90
7129;DHT22;3606;52.930;8.644;2022-07-03T16:13:25;25.70;99.90
7129;DHT22;3606;52.930;8.644;2022-07-03T16:15:51;25.60;36.10
7129;DHT22;3606;52.930;8.644;2022-07-03T16:18:17;25.60;45.60
7129;DHT22;3606;52.930;8.644;2022-07-03T16:20:43;25.60;64.00
7129;DHT22;3606;52.930;8.644;2022-07-03T16:23:11;25.70;13.20
7129;DHT22;3606;52.930;8.644;2022-07-03T16:25:37;25.80;61.40
7129;DHT22;3606;52.930;8.644;2022-07-03T16:28:07;26.00;17.10
7129;DHT22;3606;52.930;8.644;2022-07-03T16:30:35;26.00;26.50
7129;DHT22;3606;52.930;8.644;2022-07-03T16:33:02;26.00;5.20
7129;DHT22;3606;52.930;8.644;2022-07-03T16:35:37;25.90;1.00
7129;DHT22;3606;52.930;8.644;2022-07-03T16:38:05;26.00;1.00
7129;DHT22;3606;52.930;8.644;2022-07-03T16:40:32;26.00;1.00
7129;DHT22;3606;52.930;8.644;2022-07-03T16:43:02;26.00;1.00
7129;DHT22;3606;52.930;8.644;2022-07-03T16:45:31;26.00;1.00
7129;DHT22;3606;52.930;8.644;2022-07-03T16:48:05;26.10;1.00
7129;DHT22;3606;52.930;8.644;2022-07-03T16:50:33;26.50;1.00
7129;DHT22;3606;52.930;8.644;2022-07-03T16:52:59;27.00;99.90
7129;DHT22;3606;52.930;8.644;2022-07-03T16:55:24;27.90;99.90
7129;DHT22;3606;52.930;8.644;2022-07-03T16:57:52;28.70;99.90
7129;DHT22;3606;52.930;8.644;2022-07-03T17:00:23;28.70;99.90
7129;DHT22;3606;52.930;8.644;2022-07-03T17:02:50;28.80;99.90
7129;DHT22;3606;52.930;8.644;2022-07-03T17:05:17;29.00;99.90
7129;DHT22;3606;52.930;8.644;2022-07-03T17:07:46;28.20;99.90
7129;DHT22;3606;52.930;8.644;2022-07-03T17:10:13;28.00;99.90
7129;DHT22;3606;52.930;8.644;2022-07-03T17:12:44;28.00;99.90
7129;DHT22;3606;52.930;8.644;2022-07-03T17:15:11;27.50;99.90
7129;DHT22;3606;52.930;8.644;2022-07-03T17:17:44;27.00;99.90
7129;DHT22;3606;52.930;8.644;2022-07-03T17:20:17;26.70;99.90
7129;DHT22;3606;52.930;8.644;2022-07-03T17:22:46;26.60;99.90
7129;DHT22;3606;52.930;8.644;2022-07-03T17:25:24;25.80;99.90
7129;DHT22;3606;52.930;8.644;2022-07-03T17:28:00;25.60;1.00
7129;DHT22;3606;52.930;8.644;2022-07-03T17:30:36;25.50;1.00
7129;DHT22;3606;52.930;8.644;2022-07-03T17:33:12;25.70;1.00